Time;durP1;ratioP1;P1;durP2;ratioP2;P2;SDS_P1;SDS_P2;PMS_P1;PMS_P2;Temp;Humidity;BMP_temperature;BMP_pressure;BME280_temperature;BME280_humidity;BME280_pressure;Samples;Min_cycle;Max_cycle;Signal;HPM_P1;HPM_P2
2022/07/01 00:00:20;;;;;;;9.85;3.92;;;;;;;;;;5051949;28;20389;-42
2022/07/01 00:02:46;;;;;;;7.13;3.70;;;;;;;;;;5051872;28;20032;-42
2022/07/01 00:05:11;;;;;;;8.10;4.10;;;;;;;;;;5051813;28;20411;-42
2022/07/01 00:07:37;;;;;;;8.57;4.25;;;;;;;;;;5054712;28;20059;-42
2022/07/01 00:10:04;;;;;;;13.57;4.28;;;;;;;;;;5055174;28;20053;-45
2022/07/01 00:12:29;;;;;;;10.48;4.30;;;;;;;;;;5055235;28;20392;-41
2022/07/01 00:14:55;;;;;;;9.27;4.05;;;;;;;;;;5055490;28;20040;-43
2022/07/01 00:17:20;;;;;;;12.13;4.10;;;;;;;;;;5055489;28;20017;-43
2022/07/01 00:19:45;;;;;;;12.32;4.43;;;;;;;;;;5055104;28;20469;-47
2022/07/01 00:22:11;;;;;;;5.53;4.20;;;;;;;;;;5055115;28;20048;-45
2022/07/01 00:24:36;;;;;;;13.60;4.00;;;;;;;;;;5055417;28;20070;-43
2022/07/01 00:27:02;;;;;;;7.03;4.20;;;;;;;;;;5055258;28;20032;-42
2022/07/01 00:29:28;;;;;;;13.23;4.68;;;;;;;;;;5055009;28;20024;-42
2022/07/01 00:31:53;;;;;;;12.43;4.55;;;;;;;;;;5055237;28;20067;-43
2022/07/01 00:34:19;;;;;;;11.35;4.32;;;;;;;;;;5054862;28;20472;-44
2022/07/01 00:36:44;;;;;;;11.88;4.20;;;;;;;;;;5054822;28;20029;-44
2022/07/01 00:39:09;;;;;;;15.15;5.18;;;;;;;;;;5054731;28;20036;-44
2022/07/01 00:41:35;;;;;;;14.75;4.32;;;;;;;;;;5054719;28;20017;-43
2022/07/01 00:44:00;;;;;;;9.18;3.90;;;;;;;;;;5054677;28;20033;-43
2022/07/01 00:46:26;;;;;;;9.75;3.78;;;;;;;;;;5054877;28;20070;-49
2022/07/01 00:48:55;;;;;;;11.48;4.30;;;;;;;;;;5054560;28;20036;-48
2022/07/01 00:51:20;;;;;;;16.13;4.30;;;;;;;;;;5054612;28;20028;-43
2022/07/01 00:53:47;;;;;;;11.55;4.80;;;;;;;;;;5054539;28;20388;-43
2022/07/01 00:56:12;;;;;;;10.95;4.68;;;;;;;;;;5054507;28;20469;-48
2022/07/01 00:58:38;;;;;;;14.32;4.53;;;;;;;;;;5054406;28;20033;-48
2022/07/01 01:01:04;;;;;;;8.25;4.50;;;;;;;;;;5054585;28;20392;-49
2022/07/01 01:03:30;;;;;;;5.57;4.00;;;;;;;;;;5054379;28;20389;-41
2022/07/01 01:05:56;;;;;;;11.48;4.35;;;;;;;;;;5054344;28;20369;-41
2022/07/01 01:08:22;;;;;;;12.30;4.30;;;;;;;;;;5054267;28;20431;-42
2022/07/01 01:10:48;;;;;;;7.95;4.45;;;;;;;;;;5054281;28;20025;-42
2022/07/01 01:13:13;;;;;;;13.60;4.40;;;;;;;;;;5054370;28;20025;-45
2022/07/01 01:15:39;;;;;;;7.07;4.50;;;;;;;;;;5054370;28;20099;-42
2022/07/01 01:18:05;;;;;;;10.80;4.75;;;;;;;;;;5054059;28;20457;-43
2022/07/01 01:20:34;;;;;;;12.82;3.90;;;;;;;;;;5053913;28;20129;-43
2022/07/01 01:23:00;;;;;;;7.13;4.60;;;;;;;;;;5053988;28;20032;-43
2022/07/01 01:25:25;;;;;;;10.60;4.60;;;;;;;;;;5053926;28;20072;-44
2022/07/01 01:27:50;;;;;;;14.32;4.90;;;;;;;;;;5053804;28;20028;-44
2022/07/01 01:30:16;;;;;;;8.95;4.38;;;;;;;;;;5053833;28;20025;-43
2022/07/01 01:32:41;;;;;;;12.20;5.93;;;;;;;;;;5053834;28;20028;-45
2022/07/01 01:35:09;;;;;;;11.55;4.75;;;;;;;;;;5053784;28;20155;-46
2022/07/01 01:37:35;;;;;;;16.05;4.93;;;;;;;;;;5053917;28;20370;-47
2022/07/01 01:40:01;;;;;;;8.55;4.78;;;;;;;;;;5053517;28;20154;-48
2022/07/01 01:42:27;;;;;;;8.45;4.72;;;;;;;;;;5053870;28;20033;-44
2022/07/01 01:44:52;;;;;;;10.80;4.32;;;;;;;;;;5053802;28;20028;-43
2022/07/01 01:47:18;;;;;;;11.15;4.82;;;;;;;;;;5053515;28;20457;-44
2022/07/01 01:49:44;;;;;;;9.68;4.43;;;;;;;;;;5053735;28;20440;-42
2022/07/01 01:52:09;;;;;;;11.30;4.53;;;;;;;;;;5053378;28;20052;-42
2022/07/01 01:54:36;;;;;;;10.70;5.00;;;;;;;;;;5053656;28;20108;-44
2022/07/01 01:57:03;;;;;;;15.07;4.45;;;;;;;;;;5053409;28;20021;-42
2022/07/01 01:59:28;;;;;;;13.18;4.88;;;;;;;;;;5053382;28;20025;-43
2022/07/01 02:01:53;;;;;;;11.45;4.70;;;;;;;;;;5053491;28;20112;-44
2022/07/01 02:04:19;;;;;;;5.45;4.68;;;;;;;;;;5053224;28;20013;-44
2022/07/01 02:06:45;;;;;;;12.05;4.28;;;;;;;;;;5053101;28;20047;-43
2022/07/01 02:09:10;;;;;;;7.55;4.60;;;;;;;;;;5052865;28;20086;-43
2022/07/01 02:11:36;;;;;;;5.53;3.85;;;;;;;;;;5053068;28;20035;-44
2022/07/01 02:14:01;;;;;;;7.35;4.03;;;;;;;;;;5053254;28;20112;-47
2022/07/01 02:16:27;;;;;;;7.53;4.03;;;;;;;;;;5052967;28;20061;-43
2022/07/01 02:18:52;;;;;;;10.73;4.45;;;;;;;;;;5052812;28;20487;-45
2022/07/01 02:21:18;;;;;;;10.98;4.78;;;;;;;;;;5053141;28;20025;-46
2022/07/01 02:23:43;;;;;;;15.30;4.57;;;;;;;;;;5052888;28;20062;-42
2022/07/01 02:26:09;;;;;;;11.05;4.93;;;;;;;;;;5053051;28;20025;-42
2022/07/01 02:28:34;;;;;;;7.35;4.85;;;;;;;;;;5052404;28;20021;-43
2022/07/01 02:30:59;;;;;;;8.75;5.30;;;;;;;;;;5052967;28;20017;-44
2022/07/01 02:33:25;;;;;;;17.98;5.30;;;;;;;;;;5052729;28;20495;-41
2022/07/01 02:35:50;;;;;;;9.48;4.80;;;;;;;;;;5052709;28;20056;-42
2022/07/01 02:38:16;;;;;;;11.98;5.40;;;;;;;;;;5052910;28;20457;-43
2022/07/01 02:40:41;;;;;;;10.63;5.20;;;;;;;;;;5052631;28;20536;-42
2022/07/01 02:43:07;;;;;;;9.68;4.82;;;;;;;;;;5052624;28;20370;-42
2022/07/01 02:45:33;;;;;;;8.63;4.40;;;;;;;;;;5052792;28;20043;-42
2022/07/01 02:47:58;;;;;;;7.82;4.72;;;;;;;;;;5052526;28;20038;-47
2022/07/01 02:50:24;;;;;;;10.27;4.78;;;;;;;;;;5052525;28;20385;-45
2022/07/01 02:52:49;;;;;;;11.25;4.78;;;;;;;;;;5052444;28;20021;-48
2022/07/01 02:55:15;;;;;;;14.07;5.32;;;;;;;;;;5051487;28;20083;-46
2022/07/01 02:57:42;;;;;;;10.13;5.25;;;;;;;;;;5051132;28;20488;-48
2022/07/01 03:00:11;;;;;;;11.32;5.43;;;;;;;;;;5052605;28;20390;-49
2022/07/01 03:02:36;;;;;;;16.50;5.43;;;;;;;;;;5052334;28;20036;-46
2022/07/01 03:05:02;;;;;;;12.73;5.40;;;;;;;;;;5051044;28;20013;-42
2022/07/01 03:07:28;;;;;;;13.70;5.40;;;;;;;;;;5052524;28;20384;-44
2022/07/01 03:09:53;;;;;;;15.98;6.28;;;;;;;;;;5051938;28;20052;-42
2022/07/01 03:12:25;;;;;;;17.05;6.35;;;;;;;;;;5052471;28;20033;-44
2022/07/01 03:14:51;;;;;;;24.73;5.82;;;;;;;;;;5052266;28;20039;-42
2022/07/01 03:17:17;;;;;;;15.30;5.75;;;;;;;;;;5052462;28;20388;-46
2022/07/01 03:19:42;;;;;;;15.35;5.95;;;;;;;;;;5052332;28;20086;-42
2022/07/01 03:22:07;;;;;;;24.58;7.00;;;;;;;;;;5052170;28;20382;-46
2022/07/01 03:24:33;;;;;;;14.02;5.78;;;;;;;;;;5052198;28;20025;-43
2022/07/01 03:26:59;;;;;;;10.77;5.88;;;;;;;;;;5052286;28;20029;-47
2022/07/01 03:29:24;;;;;;;15.82;5.63;;;;;;;;;;5052090;28;20424;-42
2022/07/01 03:31:50;;;;;;;13.50;5.65;;;;;;;;;;5052030;28;20028;-44
2022/07/01 03:34:15;;;;;;;10.73;4.97;;;;;;;;;;5052394;28;20381;-43
2022/07/01 03:36:40;;;;;;;10.63;4.15;;;;;;;;;;5052057;28;20384;-47
2022/07/01 03:39:06;;;;;;;13.18;5.25;;;;;;;;;;5051871;28;20113;-47
2022/07/01 03:41:31;;;;;;;9.50;4.22;;;;;;;;;;5053756;28;20108;-46
2022/07/01 03:43:57;;;;;;;16.27;5.03;;;;;;;;;;5055885;28;20021;-44
2022/07/01 03:46:22;;;;;;;16.20;5.57;;;;;;;;;;5056078;28;20040;-44
2022/07/01 03:48:48;;;;;;;17.10;5.72;;;;;;;;;;5055809;28;20029;-43
2022/07/01 03:51:13;;;;;;;15.50;5.78;;;;;;;;;;5056043;28;20021;-46
2022/07/01 03:56:22;;;;;;;13.60;6.30;;;;;;;;;;5055708;28;20396;-43
2022/07/01 03:58:47;;;;;;;14.32;5.68;;;;;;;;;;5055517;28;20021;-47
2022/07/01 04:01:13;;;;;;;9.75;5.40;;;;;;;;;;5055853;28;20036;-45
2022/07/01 04:03:38;;;;;;;14.23;5.40;;;;;;;;;;5055785;28;20028;-44
2022/07/01 04:06:04;;;;;;;13.35;5.85;;;;;;;;;;5055516;28;20029;-44
2022/07/01 04:08:30;;;;;;;13.68;5.07;;;;;;;;;;5055203;28;20013;-47
2022/07/01 04:10:56;;;;;;;12.45;5.32;;;;;;;;;;5055597;28;20427;-45
2022/07/01 04:13:22;;;;;;;14.88;5.10;;;;;;;;;;5055478;28;20021;-45
2022/07/01 04:15:48;;;;;;;13.23;4.85;;;;;;;;;;5055273;28;20075;-44
2022/07/01 04:18:13;;;;;;;12.70;5.20;;;;;;;;;;5055146;28;20104;-43
2022/07/01 04:20:39;;;;;;;11.05;5.28;;;;;;;;;;5055401;28;20029;-45
2022/07/01 04:23:04;;;;;;;13.88;4.80;;;;;;;;;;5055063;28;20464;-46
2022/07/01 04:25:29;;;;;;;17.70;4.72;;;;;;;;;;5055051;28;20045;-49
2022/07/01 04:27:56;;;;;;;9.25;5.05;;;;;;;;;;5055282;28;20052;-47
2022/07/01 04:30:22;;;;;;;9.35;4.35;;;;;;;;;;5054968;28;20025;-43
2022/07/01 04:32:47;;;;;;;11.93;4.60;;;;;;;;;;5055003;28;20480;-43
2022/07/01 04:35:14;;;;;;;6.57;4.80;;;;;;;;;;5055204;28;20028;-46
2022/07/01 04:37:40;;;;;;;12.77;4.75;;;;;;;;;;5055121;28;20032;-45
2022/07/01 04:40:06;;;;;;;11.25;4.50;;;;;;;;;;5054782;28;20491;-46
2022/07/01 04:42:32;;;;;;;9.48;4.50;;;;;;;;;;5055073;28;20071;-41
2022/07/01 04:44:57;;;;;;;14.07;4.50;;;;;;;;;;5054942;28;20122;-45
2022/07/01 04:47:23;;;;;;;9.18;4.22;;;;;;;;;;5054912;28;20484;-41
2022/07/01 04:49:49;;;;;;;13.98;4.35;;;;;;;;;;5053676;28;20048;-47
2022/07/01 04:52:14;;;;;;;15.48;4.18;;;;;;;;;;5054261;28;20025;-43
2022/07/01 04:54:41;;;;;;;12.52;4.50;;;;;;;;;;5054502;28;20025;-46
2022/07/01 04:57:06;;;;;;;19.02;4.88;;;;;;;;;;5054722;28;20442;-44
2022/07/01 04:59:32;;;;;;;15.30;4.63;;;;;;;;;;5054198;28;20443;-47
2022/07/01 05:01:59;;;;;;;10.98;4.30;;;;;;;;;;5054539;28;20025;-45
2022/07/01 05:04:27;;;;;;;10.00;4.18;;;;;;;;;;5054491;28;20051;-44
2022/07/01 05:06:53;;;;;;;12.25;4.28;;;;;;;;;;5054450;28;20068;-45
2022/07/01 05:09:19;;;;;;;11.65;5.05;;;;;;;;;;5054169;28;20064;-43
2022/07/01 05:11:44;;;;;;;12.95;4.20;;;;;;;;;;5054489;28;20515;-44
2022/07/01 05:14:09;;;;;;;15.75;4.72;;;;;;;;;;5054184;28;20044;-41
2022/07/01 05:16:35;;;;;;;12.20;4.88;;;;;;;;;;5054032;28;20029;-44
2022/07/01 05:21:58;;;;;;;22.90;5.45;;;;;;;;;;5054265;28;20032;-44
2022/07/01 05:24:32;;;;;;;17.83;4.60;;;;;;;;;;5054293;28;20103;-48
2022/07/01 05:26:58;;;;;;;7.97;4.30;;;;;;;;;;5053834;28;20032;-47
2022/07/01 05:29:24;;;;;;;8.63;4.20;;;;;;;;;;5054068;28;20021;-43
2022/07/01 05:31:50;;;;;;;5.28;3.72;;;;;;;;;;5053786;28;20021;-47
2022/07/01 05:34:15;;;;;;;12.05;4.13;;;;;;;;;;5053941;28;20025;-41
2022/07/01 05:36:40;;;;;;;8.75;4.07;;;;;;;;;;5053946;28;20029;-45
2022/07/01 05:39:06;;;;;;;8.95;3.97;;;;;;;;;;5053890;28;20380;-44
2022/07/01 05:41:32;;;;;;;9.32;3.83;;;;;;;;;;5053685;28;20074;-50
2022/07/01 05:43:58;;;;;;;7.85;3.70;;;;;;;;;;5053883;28;20067;-45
2022/07/01 05:46:23;;;;;;;8.73;3.90;;;;;;;;;;5053784;28;20531;-49
2022/07/01 05:48:49;;;;;;;6.60;3.80;;;;;;;;;;5053557;28;20025;-47
2022/07/01 05:51:14;;;;;;;7.93;3.80;;;;;;;;;;5053408;28;20369;-48
2022/07/01 05:53:39;;;;;;;10.70;3.95;;;;;;;;;;5053098;28;20107;-48
2022/07/01 05:56:05;;;;;;;8.90;4.10;;;;;;;;;;5052631;28;20036;-46
2022/07/01 05:58:30;;;;;;;7.03;3.58;;;;;;;;;;5053228;28;20017;-46
2022/07/01 06:00:56;;;;;;;10.18;4.03;;;;;;;;;;5053218;28;20032;-45
2022/07/01 06:03:21;;;;;;;5.60;3.75;;;;;;;;;;5052694;28;20025;-47
2022/07/01 06:05:46;;;;;;;6.78;3.60;;;;;;;;;;5052817;28;20040;-43
2022/07/01 06:08:12;;;;;;;12.27;4.53;;;;;;;;;;5053044;28;20112;-45
2022/07/01 06:10:37;;;;;;;5.43;3.80;;;;;;;;;;5052926;28;20532;-46
2022/07/01 06:13:03;;;;;;;11.95;4.97;;;;;;;;;;5053215;28;20488;-50
2022/07/01 06:15:28;;;;;;;10.55;4.85;;;;;;;;;;5052995;28;20024;-46
2022/07/01 06:17:55;;;;;;;8.55;4.50;;;;;;;;;;5052902;28;20089;-46
2022/07/01 06:20:20;;;;;;;9.25;4.32;;;;;;;;;;5053009;28;20103;-43
2022/07/01 06:22:46;;;;;;;8.90;4.22;;;;;;;;;;5053074;28;20465;-45
2022/07/01 06:25:11;;;;;;;9.68;4.30;;;;;;;;;;5053029;28;20354;-46
2022/07/01 06:27:45;;;;;;;9.48;4.45;;;;;;;;;;5052912;28;20541;-43
2022/07/01 06:30:12;;;;;;;10.60;4.15;;;;;;;;;;5052535;28;20104;-45
2022/07/01 06:32:38;;;;;;;9.32;4.40;;;;;;;;;;5052918;28;20050;-44
2022/07/01 06:35:04;;;;;;;7.07;3.55;;;;;;;;;;5052618;28;20512;-44
2022/07/01 06:37:33;;;;;;;7.03;3.85;;;;;;;;;;5051336;28;20033;-46
2022/07/01 06:40:00;;;;;;;11.70;4.05;;;;;;;;;;5052449;28;20028;-46
2022/07/01 06:42:25;;;;;;;9.50;4.18;;;;;;;;;;5052576;28;20035;-48
2022/07/01 06:44:51;;;;;;;8.20;4.20;;;;;;;;;;5052482;28;20444;-42
2022/07/01 06:47:16;;;;;;;7.72;4.18;;;;;;;;;;5052475;28;20025;-45
2022/07/01 06:49:42;;;;;;;10.70;4.00;;;;;;;;;;5052366;28;20465;-47
2022/07/01 06:52:07;;;;;;;11.13;4.15;;;;;;;;;;5052643;28;20119;-43
2022/07/01 06:54:37;;;;;;;11.30;4.40;;;;;;;;;;5052459;28;20559;-47
2022/07/01 06:57:04;;;;;;;8.45;4.28;;;;;;;;;;5052653;28;20108;-45
2022/07/01 06:59:29;;;;;;;7.07;4.15;;;;;;;;;;5052201;28;20028;-44
2022/07/01 07:01:55;;;;;;;4.32;3.47;;;;;;;;;;5052834;28;20029;-42
2022/07/01 07:04:20;;;;;;;14.85;3.95;;;;;;;;;;5052147;28;20087;-45
2022/07/01 07:06:45;;;;;;;10.80;3.85;;;;;;;;;;5052308;28;20041;-49
2022/07/01 07:09:11;;;;;;;14.85;4.65;;;;;;;;;;5052062;28;20045;-44
2022/07/01 07:11:36;;;;;;;6.82;4.28;;;;;;;;;;5052209;28;20040;-48
2022/07/01 07:14:01;;;;;;;8.00;4.07;;;;;;;;;;5052199;28;20433;-44
2022/07/01 07:16:27;;;;;;;11.13;3.58;;;;;;;;;;5055621;28;20380;-46
2022/07/01 07:18:53;;;;;;;9.77;4.10;;;;;;;;;;5056447;28;20029;-45
2022/07/01 07:21:18;;;;;;;7.20;4.05;;;;;;;;;;5056478;28;20024;-43
2022/07/01 07:23:44;;;;;;;9.15;3.90;;;;;;;;;;5056217;28;20365;-49
2022/07/01 07:26:10;;;;;;;6.47;3.45;;;;;;;;;;5056431;28;20025;-48
2022/07/01 07:28:35;;;;;;;5.82;3.30;;;;;;;;;;5056433;28;20049;-45
2022/07/01 07:31:01;;;;;;;9.40;4.30;;;;;;;;;;5056373;28;20114;-43
2022/07/01 07:33:27;;;;;;;12.95;3.55;;;;;;;;;;5056288;28;20358;-46
2022/07/01 07:35:52;;;;;;;5.90;3.72;;;;;;;;;;5056276;28;20025;-47
2022/07/01 07:38:19;;;;;;;12.27;3.88;;;;;;;;;;5055852;28;20092;-43
2022/07/01 07:40:44;;;;;;;7.95;3.70;;;;;;;;;;5055993;28;20033;-45
2022/07/01 07:43:10;;;;;;;5.70;3.60;;;;;;;;;;5055875;28;20091;-50
2022/07/01 07:45:35;;;;;;;7.05;3.78;;;;;;;;;;5055780;28;20526;-46
2022/07/01 07:48:02;;;;;;;8.02;3.42;;;;;;;;;;5055782;28;20079;-47
2022/07/01 07:50:27;;;;;;;5.43;3.40;;;;;;;;;;5056026;28;20431;-44
2022/07/01 07:52:53;;;;;;;10.93;3.90;;;;;;;;;;5055983;28;20444;-49
2022/07/01 07:55:18;;;;;;;6.82;3.67;;;;;;;;;;5055876;28;20017;-47
2022/07/01 07:57:44;;;;;;;15.35;3.80;;;;;;;;;;5055514;28;20427;-46
2022/07/01 08:00:12;;;;;;;10.25;3.55;;;;;;;;;;5055728;28;20025;-47
2022/07/01 08:02:39;;;;;;;11.00;4.13;;;;;;;;;;5055800;28;20025;-42
2022/07/01 08:05:05;;;;;;;6.57;3.13;;;;;;;;;;5055365;28;20051;-46
2022/07/01 08:07:36;;;;;;;5.90;3.17;;;;;;;;;;5055359;28;20018;-41
2022/07/01 08:10:02;;;;;;;9.85;4.10;;;;;;;;;;5055158;28;20393;-48
2022/07/01 08:12:27;;;;;;;6.68;3.00;;;;;;;;;;5055285;28;20035;-47
2022/07/01 08:14:53;;;;;;;9.05;3.88;;;;;;;;;;5055280;28;20132;-48
2022/07/01 08:17:18;;;;;;;6.60;3.10;;;;;;;;;;5055177;28;20102;-43
2022/07/01 08:19:43;;;;;;;7.47;3.78;;;;;;;;;;5055086;28;20025;-45
2022/07/01 08:22:09;;;;;;;8.27;3.45;;;;;;;;;;5054350;28;20075;-44
2022/07/01 08:24:34;;;;;;;6.00;3.30;;;;;;;;;;5053084;28;20056;-47
2022/07/01 08:27:00;;;;;;;8.52;3.78;;;;;;;;;;5052453;28;20021;-46
2022/07/01 08:29:26;;;;;;;8.20;3.33;;;;;;;;;;5053221;28;20473;-41
2022/07/01 08:31:51;;;;;;;5.70;3.13;;;;;;;;;;5053942;28;20041;-47
2022/07/01 08:34:16;;;;;;;7.15;2.65;;;;;;;;;;5054605;28;20017;-43
2022/07/01 08:36:42;;;;;;;9.50;3.15;;;;;;;;;;5054847;28;20469;-41
2022/07/01 08:39:07;;;;;;;5.25;3.13;;;;;;;;;;5052954;28;20032;-46
2022/07/01 08:41:33;;;;;;;4.22;2.80;;;;;;;;;;5055021;28;20025;-43
2022/07/01 08:43:58;;;;;;;4.90;3.10;;;;;;;;;;5054741;28;20377;-48
2022/07/01 08:46:27;;;;;;;6.05;3.60;;;;;;;;;;5054536;28;20079;-47
2022/07/01 08:48:53;;;;;;;14.37;3.40;;;;;;;;;;5054937;28;20021;-46
2022/07/01 08:51:18;;;;;;;5.95;3.30;;;;;;;;;;5054518;28;20270;-43
2022/07/01 08:53:43;;;;;;;6.90;3.25;;;;;;;;;;5054835;28;20036;-42
2022/07/01 08:58:54;;;;;;;6.50;3.10;;;;;;;;;;5054028;28;20043;-45
2022/07/01 09:01:26;;;;;;;7.82;3.60;;;;;;;;;;5054643;28;20123;-44
2022/07/01 09:03:54;;;;;;;6.22;3.63;;;;;;;;;;5054641;28;20035;-46
2022/07/01 09:06:26;;;;;;;7.00;2.93;;;;;;;;;;5054615;28;20086;-43
2022/07/01 09:08:51;;;;;;;13.65;3.60;;;;;;;;;;5054045;28;20052;-45
2022/07/01 09:11:25;;;;;;;14.50;3.63;;;;;;;;;;5054272;28;19912;-43
2022/07/01 09:14:14;;;;;;;8.50;2.97;;;;;;;;;;5054455;28;20024;-44
2022/07/01 09:16:44;;;;;;;9.43;3.08;;;;;;;;;;5054123;28;20543;-46
2022/07/01 09:19:12;;;;;;;6.80;3.13;;;;;;;;;;5054294;28;20029;-43
2022/07/01 09:21:37;;;;;;;7.25;2.60;;;;;;;;;;5053943;28;20534;-45
2022/07/01 09:24:24;;;;;;;8.80;2.88;;;;;;;;;;5054025;28;20032;-49
2022/07/01 09:27:00;;;;;;;9.65;3.17;;;;;;;;;;5054292;28;20033;-46
2022/07/01 09:29:27;;;;;;;6.60;2.67;;;;;;;;;;5053855;28;20033;-46
2022/07/01 09:31:53;;;;;;;4.07;2.58;;;;;;;;;;5053410;28;20033;-43
2022/07/01 09:34:18;;;;;;;15.93;3.05;;;;;;;;;;5053728;28;20082;-43
2022/07/01 09:36:55;;;;;;;7.20;2.88;;;;;;;;;;5054015;28;20411;-44
2022/07/01 09:39:21;;;;;;;10.05;3.45;;;;;;;;;;5052795;28;20027;-44
2022/07/01 09:41:47;;;;;;;6.78;2.80;;;;;;;;;;5053495;28;20028;-44
2022/07/01 09:44:13;;;;;;;6.38;2.70;;;;;;;;;;5053943;28;20025;-45
2022/07/01 09:46:51;;;;;;;8.15;3.58;;;;;;;;;;5053502;28;20468;-47
2022/07/01 09:49:17;;;;;;;6.03;2.83;;;;;;;;;;5053456;28;20518;-48
2022/07/01 09:51:44;;;;;;;7.47;3.17;;;;;;;;;;5053398;28;20108;-47
2022/07/01 09:54:12;;;;;;;7.85;3.17;;;;;;;;;;5053411;28;20029;-48
2022/07/01 09:56:37;;;;;;;12.80;3.22;;;;;;;;;;5053617;28;20021;-45
2022/07/01 09:59:03;;;;;;;11.65;3.53;;;;;;;;;;5053252;28;20179;-45
2022/07/01 10:01:31;;;;;;;8.20;2.90;;;;;;;;;;5053497;28;20071;-44
2022/07/01 10:03:57;;;;;;;12.83;2.97;;;;;;;;;;5048549;28;20488;-45
2022/07/01 10:06:33;;;;;;;10.23;3.70;;;;;;;;;;5053106;28;20246;-46
2022/07/01 10:09:16;;;;;;;8.85;2.88;;;;;;;;;;5052367;28;20060;-48
2022/07/01 10:12:19;;;;;;;6.22;2.92;;;;;;;;;;5052156;28;20025;-46
2022/07/01 10:14:45;;;;;;;5.57;3.00;;;;;;;;;;5041628;28;20392;-50
2022/07/01 10:17:26;;;;;;;8.57;3.40;;;;;;;;;;5051279;28;20025;-46
2022/07/01 10:19:56;;;;;;;8.65;2.97;;;;;;;;;;5051335;28;20151;-45
2022/07/01 10:22:26;;;;;;;8.18;2.90;;;;;;;;;;5051230;28;20067;-48
2022/07/01 10:24:51;;;;;;;9.52;3.30;;;;;;;;;;5051163;28;20036;-43
2022/07/01 10:27:22;;;;;;;8.50;2.63;;;;;;;;;;5051528;28;20029;-47
2022/07/01 10:29:48;;;;;;;6.25;2.95;;;;;;;;;;5051195;28;20508;-46
2022/07/01 10:32:23;;;;;;;8.10;3.20;;;;;;;;;;5051112;28;20064;-45
2022/07/01 10:34:48;;;;;;;8.05;3.08;;;;;;;;;;5051079;28;20520;-43
2022/07/01 10:37:17;;;;;;;9.38;2.83;;;;;;;;;;5051127;28;20025;-43
2022/07/01 10:40:03;;;;;;;8.77;3.10;;;;;;;;;;5050848;28;20418;-45
2022/07/01 10:42:37;;;;;;;8.88;3.65;;;;;;;;;;5050920;28;20072;-45
2022/07/01 10:45:09;;;;;;;6.00;2.80;;;;;;;;;;5050376;28;20369;-43
2022/07/01 10:47:37;;;;;;;9.52;3.55;;;;;;;;;;5050780;28;20095;-45
2022/07/01 10:50:06;;;;;;;12.30;3.13;;;;;;;;;;5050469;28;20032;-44
2022/07/01 10:52:33;;;;;;;8.63;3.00;;;;;;;;;;5051018;28;20523;-44
2022/07/01 10:55:00;;;;;;;4.93;3.17;;;;;;;;;;5050953;28;20041;-45
2022/07/01 10:57:29;;;;;;;10.85;3.85;;;;;;;;;;5050756;28;20036;-41
2022/07/01 11:00:14;;;;;;;20.50;3.22;;;;;;;;;;5050803;28;20108;-45
2022/07/01 11:02:40;;;;;;;10.25;3.38;;;;;;;;;;5039704;28;20079;-44
2022/07/01 11:05:11;;;;;;;10.40;3.20;;;;;;;;;;5050827;28;20060;-42
2022/07/01 11:07:39;;;;;;;6.40;3.10;;;;;;;;;;5050515;28;20136;-42
2022/07/01 11:10:07;;;;;;;11.60;3.22;;;;;;;;;;5050477;28;20049;-44
2022/07/01 11:12:34;;;;;;;8.93;3.28;;;;;;;;;;5050836;28;20049;-46
2022/07/01 11:15:01;;;;;;;6.15;2.83;;;;;;;;;;5050670;28;20037;-44
2022/07/01 11:17:28;;;;;;;7.15;3.00;;;;;;;;;;5050839;28;20032;-46
2022/07/01 11:19:57;;;;;;;6.93;2.75;;;;;;;;;;5050570;28;20021;-45
2022/07/01 11:22:28;;;;;;;9.50;3.58;;;;;;;;;;5050416;28;20114;-46
2022/07/01 11:24:59;;;;;;;8.35;3.47;;;;;;;;;;5050908;28;20056;-42
2022/07/01 11:27:25;;;;;;;13.25;3.58;;;;;;;;;;5050546;28;20029;-44
2022/07/01 11:29:52;;;;;;;12.13;3.50;;;;;;;;;;5050625;28;20033;-46
2022/07/01 11:32:47;;;;;;;9.43;3.35;;;;;;;;;;5050246;28;20469;-43
2022/07/01 11:41:21;;;;;;;15.77;4.75;;;;;;;;;;5050706;28;20044;-46
2022/07/01 11:43:47;;;;;;;7.72;3.38;;;;;;;;;;5050280;28;20025;-46
2022/07/01 11:46:12;;;;;;;7.03;2.88;;;;;;;;;;5050382;28;20025;-49
2022/07/01 11:48:49;;;;;;;11.40;2.92;;;;;;;;;;5050633;28;20047;-46
2022/07/01 11:51:20;;;;;;;7.57;3.80;;;;;;;;;;5050238;28;20029;-49
2022/07/01 11:53:49;;;;;;;15.65;3.55;;;;;;;;;;5050608;28;20025;-48
2022/07/01 11:56:15;;;;;;;18.52;3.30;;;;;;;;;;5050234;28;20033;-46
2022/07/01 11:58:50;;;;;;;18.95;3.40;;;;;;;;;;5050672;28;20064;-45
2022/07/01 12:01:27;;;;;;;16.85;3.38;;;;;;;;;;5050409;28;20051;-44
2022/07/01 12:03:54;;;;;;;9.65;3.55;;;;;;;;;;5054016;28;20372;-44
2022/07/01 12:06:23;;;;;;;8.90;3.10;;;;;;;;;;5054026;28;20028;-47
2022/07/01 12:08:49;;;;;;;7.97;2.75;;;;;;;;;;5053513;28;20049;-47
2022/07/01 12:11:16;;;;;;;9.02;3.03;;;;;;;;;;5053436;28;20116;-47
2022/07/01 12:13:44;;;;;;;11.82;3.58;;;;;;;;;;5053536;28;20096;-42
2022/07/01 12:16:10;;;;;;;5.25;2.70;;;;;;;;;;5053446;28;20127;-43
2022/07/01 12:18:36;;;;;;;9.32;3.80;;;;;;;;;;5053407;28;20067;-46
2022/07/01 12:21:04;;;;;;;6.72;3.15;;;;;;;;;;5053891;28;20554;-48
2022/07/01 12:23:32;;;;;;;6.45;2.90;;;;;;;;;;5053558;28;20032;-47
2022/07/01 12:25:58;;;;;;;7.07;2.80;;;;;;;;;;5052489;28;20029;-42
2022/07/01 12:28:28;;;;;;;8.68;3.63;;;;;;;;;;5053013;28;20040;-46
2022/07/01 12:31:08;;;;;;;5.55;3.08;;;;;;;;;;5053688;28;20029;-45
2022/07/01 12:33:48;;;;;;;9.10;2.90;;;;;;;;;;5052175;28;20029;-43
2022/07/01 12:36:15;;;;;;;10.38;2.83;;;;;;;;;;5053393;28;20037;-50
2022/07/01 12:38:41;;;;;;;7.97;2.90;;;;;;;;;;5053276;28;20036;-44
2022/07/01 12:41:30;;;;;;;5.25;2.70;;;;;;;;;;5052823;28;20029;-46
2022/07/01 12:43:55;;;;;;;7.18;2.95;;;;;;;;;;5053207;28;20033;-46
2022/07/01 12:46:29;;;;;;;7.32;2.97;;;;;;;;;;5053282;28;20040;-43
2022/07/01 12:48:55;;;;;;;9.40;3.28;;;;;;;;;;5053226;28;20036;-43
2022/07/01 12:51:20;;;;;;;10.05;3.40;;;;;;;;;;5053255;28;20025;-43
2022/07/01 12:53:45;;;;;;;9.15;3.20;;;;;;;;;;5052989;28;20036;-48
2022/07/01 12:56:23;;;;;;;4.60;3.25;;;;;;;;;;5052880;28;20029;-45
2022/07/01 12:58:48;;;;;;;10.18;3.45;;;;;;;;;;5052909;28;20036;-46
2022/07/01 13:01:14;;;;;;;8.55;3.65;;;;;;;;;;5053111;28;20024;-45
2022/07/01 13:03:40;;;;;;;15.93;4.47;;;;;;;;;;5053016;28;20070;-46
2022/07/01 13:06:06;;;;;;;9.23;3.70;;;;;;;;;;5052676;28;20036;-44
2022/07/01 13:08:31;;;;;;;9.38;3.38;;;;;;;;;;5052639;28;20469;-48
2022/07/01 13:10:56;;;;;;;8.95;3.30;;;;;;;;;;5052686;28;20476;-45
2022/07/01 13:13:22;;;;;;;8.30;2.88;;;;;;;;;;5052408;28;20056;-46
2022/07/01 13:15:48;;;;;;;8.68;3.60;;;;;;;;;;5052382;28;20040;-48
2022/07/01 13:18:14;;;;;;;6.25;3.20;;;;;;;;;;5052485;28;20032;-46
2022/07/01 13:20:41;;;;;;;8.23;3.10;;;;;;;;;;5052783;28;20039;-44
2022/07/01 13:23:06;;;;;;;6.18;3.13;;;;;;;;;;5052409;28;20029;-42
2022/07/01 13:25:31;;;;;;;7.88;3.60;;;;;;;;;;5052446;28;20086;-45
2022/07/01 13:27:58;;;;;;;6.47;3.33;;;;;;;;;;5052249;28;20041;-48
2022/07/01 13:30:23;;;;;;;7.57;3.10;;;;;;;;;;5051858;28;20029;-46
2022/07/01 13:32:53;;;;;;;5.57;3.35;;;;;;;;;;5052240;28;20362;-43
2022/07/01 13:35:20;;;;;;;9.73;3.08;;;;;;;;;;5052255;28;20029;-45
2022/07/01 13:37:45;;;;;;;12.02;3.63;;;;;;;;;;5052406;28;20073;-42
2022/07/01 13:40:11;;;;;;;10.63;3.97;;;;;;;;;;5051952;28;20389;-42
2022/07/01 13:42:36;;;;;;;9.80;3.15;;;;;;;;;;5050871;28;20048;-44
2022/07/01 13:45:03;;;;;;;8.60;3.30;;;;;;;;;;5051998;28;20108;-44
2022/07/01 13:47:29;;;;;;;6.72;3.17;;;;;;;;;;5052183;28;20429;-42
2022/07/01 13:49:55;;;;;;;8.07;3.80;;;;;;;;;;5052036;28;20373;-45
2022/07/01 13:52:20;;;;;;;8.18;3.20;;;;;;;;;;5050867;28;20037;-44
2022/07/01 13:54:46;;;;;;;12.32;3.40;;;;;;;;;;5051975;28;20538;-46
2022/07/01 13:57:11;;;;;;;8.48;3.47;;;;;;;;;;5051667;28;20057;-45
2022/07/01 13:59:37;;;;;;;6.03;3.28;;;;;;;;;;5050437;28;20066;-48
2022/07/01 14:02:05;;;;;;;12.43;4.07;;;;;;;;;;5051431;28;20017;-45
2022/07/01 14:04:31;;;;;;;13.13;3.85;;;;;;;;;;5052007;28;20025;-44
2022/07/01 14:06:56;;;;;;;15.27;3.75;;;;;;;;;;5051830;28;20603;-43
2022/07/01 14:09:22;;;;;;;9.90;4.00;;;;;;;;;;5051437;28;20041;-45
2022/07/01 14:11:48;;;;;;;5.28;3.78;;;;;;;;;;5051505;28;20385;-47
2022/07/01 14:14:13;;;;;;;9.48;4.30;;;;;;;;;;5051611;28;20033;-44
2022/07/01 14:16:38;;;;;;;6.80;3.90;;;;;;;;;;5050089;28;20025;-43
2022/07/01 14:19:04;;;;;;;10.98;3.60;;;;;;;;;;5051506;28;20029;-41
2022/07/01 14:21:29;;;;;;;12.55;3.70;;;;;;;;;;5051301;28;20025;-44
2022/07/01 14:23:55;;;;;;;6.15;3.72;;;;;;;;;;5049991;28;20127;-42
2022/07/01 14:26:20;;;;;;;10.05;3.50;;;;;;;;;;5050139;28;20025;-42
2022/07/01 14:28:45;;;;;;;9.55;4.05;;;;;;;;;;5051210;28;20056;-43
2022/07/01 14:31:11;;;;;;;6.70;4.28;;;;;;;;;;5051230;28;20107;-43
2022/07/01 14:33:36;;;;;;;9.25;4.38;;;;;;;;;;5051092;28;20112;-43
2022/07/01 14:36:02;;;;;;;4.47;4.07;;;;;;;;;;5051308;28;20499;-42
2022/07/01 14:38:27;;;;;;;6.00;3.50;;;;;;;;;;5051259;28;20040;-48
2022/07/01 14:40:53;;;;;;;8.98;4.10;;;;;;;;;;5051123;28;20369;-44
2022/07/01 14:43:19;;;;;;;6.75;4.07;;;;;;;;;;5051173;28;20059;-47
2022/07/01 14:45:46;;;;;;;6.95;4.10;;;;;;;;;;5050817;28;20530;-48
2022/07/01 14:48:12;;;;;;;6.28;4.03;;;;;;;;;;5050936;28;20507;-46
2022/07/01 14:50:39;;;;;;;7.03;4.40;;;;;;;;;;5050810;28;20112;-44